sensor_id;sensor_type;location;lat;lon;timestamp;pressure;altitude;pressure_sealevel;temperature;humidity
9839;BME280;4958;48.150;11.506;2023-01-28T00:02:13;95924.47;;;2.04;79.65
9839;BME280;4958;48.150;11.506;2023-01-28T00:04:39;95931.50;;;2.00;79.83
9839;BME280;4958;48.150;11.506;2023-01-28T00:07:05;95934.97;;;1.99;80.21
9839;BME280;4958;48.150;11.506;2023-01-28T00:09:33;95935.78;;;2.00;80.19
9839;BME280;4958;48.150;11.506;2023-01-28T00:12:00;95923.19;;;1.98;79.89
9839;BME280;4958;48.150;11.506;2023-01-28T00:14:26;95926.66;;;1.97;80.24
9839;BME280;4958;48.150;11.506;2023-01-28T00:16:52;95923.41;;;1.95;80.48
9839;BME280;4958;48.150;11.506;2023-01-28T00:19:19;95926.66;;;1.97;80.48
9839;BME280;4958;48.150;11.506;2023-01-28T00:21:46;95926.31;;;2.02;80.16
9839;BME280;4958;48.150;11.506;2023-01-28T00:24:12;95921.22;;;2.02;80.39
9839;BME280;4958;48.150;11.506;2023-01-28T00:26:40;95925.28;;;2.04;80.70
9839;BME280;4958;48.150;11.506;2023-01-28T00:29:10;95927.22;;;2.01;80.72
9839;BME280;4958;48.150;11.506;2023-01-28T00:31:37;95923.78;;;2.02;80.28
9839;BME280;4958;48.150;11.506;2023-01-28T00:34:05;95916.03;;;2.03;80.71
9839;BME280;4958;48.150;11.506;2023-01-28T00:36:31;95924.34;;;2.05;80.66
9839;BME280;4958;48.150;11.506;2023-01-28T00:38:59;95929.78;;;2.01;80.42
9839;BME280;4958;48.150;11.506;2023-01-28T00:41:27;95929.53;;;1.93;80.50
9839;BME280;4958;48.150;11.506;2023-01-28T00:43:55;95922.88;;;1.92;80.92
9839;BME280;4958;48.150;11.506;2023-01-28T00:46:22;95935.19;;;1.96;81.18
9839;BME280;4958;48.150;11.506;2023-01-28T00:48:53;95923.88;;;2.00;81.12
9839;BME280;4958;48.150;11.506;2023-01-28T00:51:19;95922.97;;;2.01;80.76
9839;BME280;4958;48.150;11.506;2023-01-28T00:53:46;95914.31;;;2.04;80.87
9839;BME280;4958;48.150;11.506;2023-01-28T00:56:14;95924.59;;;1.91;80.57
9839;BME280;4958;48.150;11.506;2023-01-28T00:58:41;95927.34;;;1.88;81.16
9839;BME280;4958;48.150;11.506;2023-01-28T01:01:11;95919.84;;;1.87;81.40
9839;BME280;4958;48.150;11.506;2023-01-28T01:03:38;95924.00;;;1.65;81.35
9839;BME280;4958;48.150;11.506;2023-01-28T01:06:05;95930.78;;;1.54;81.73
9839;BME280;4958;48.150;11.506;2023-01-28T01:08:32;95925.34;;;1.47;82.13
9839;BME280;4958;48.150;11.506;2023-01-28T01:11:05;95934.78;;;1.34;82.99
9839;BME280;4958;48.150;11.506;2023-01-28T01:13:32;95934.09;;;1.32;83.43
9839;BME280;4958;48.150;11.506;2023-01-28T01:16:03;95923.84;;;1.45;82.88
9839;BME280;4958;48.150;11.506;2023-01-28T01:18:33;95938.34;;;1.43;81.94
9839;BME280;4958;48.150;11.506;2023-01-28T01:21:00;95941.97;;;1.51;81.79
9839;BME280;4958;48.150;11.506;2023-01-28T01:23:28;95937.13;;;1.59;81.67
9839;BME280;4958;48.150;11.506;2023-01-28T01:25:55;95933.34;;;1.65;81.23
9839;BME280;4958;48.150;11.506;2023-01-28T01:28:23;95932.31;;;1.67;81.05
9839;BME280;4958;48.150;11.506;2023-01-28T01:30:49;95934.72;;;1.69;80.65
9839;BME280;4958;48.150;11.506;2023-01-28T01:33:16;95934.94;;;1.66;79.97
9839;BME280;4958;48.150;11.506;2023-01-28T01:35:43;95939.09;;;1.67;80.38
9839;BME280;4958;48.150;11.506;2023-01-28T01:38:10;95939.59;;;1.72;80.26
9839;BME280;4958;48.150;11.506;2023-01-28T01:40:36;95943.13;;;1.58;80.15
9839;BME280;4958;48.150;11.506;2023-01-28T01:43:14;95946.34;;;1.60;80.40
9839;BME280;4958;48.150;11.506;2023-01-28T01:45:41;95943.22;;;1.57;80.16
9839;BME280;4958;48.150;11.506;2023-01-28T01:48:14;95947.97;;;1.61;80.02
9839;BME280;4958;48.150;11.506;2023-01-28T01:50:50;95947.41;;;1.69;79.87
9839;BME280;4958;48.150;11.506;2023-01-28T01:53:19;95942.78;;;1.74;79.70
9839;BME280;4958;48.150;11.506;2023-01-28T01:55:49;95951.69;;;1.80;80.01
9839;BME280;4958;48.150;11.506;2023-01-28T01:58:19;95954.44;;;1.77;79.73
9839;BME280;4958;48.150;11.506;2023-01-28T02:00:46;95949.16;;;1.80;79.66
9839;BME280;4958;48.150;11.506;2023-01-28T02:03:15;95956.53;;;1.83;79.63
9839;BME280;4958;48.150;11.506;2023-01-28T02:05:43;95953.19;;;1.82;79.32
9839;BME280;4958;48.150;11.506;2023-01-28T02:08:10;95952.84;;;1.87;79.61
9839;BME280;4958;48.150;11.506;2023-01-28T02:10:48;95952.63;;;1.90;79.44
9839;BME280;4958;48.150;11.506;2023-01-28T02:13:16;95955.19;;;1.90;79.21
9839;BME280;4958;48.150;11.506;2023-01-28T02:15:46;95948.22;;;1.81;78.99
9839;BME280;4958;48.150;11.506;2023-01-28T02:18:14;95952.81;;;1.76;79.74
9839;BME280;4958;48.150;11.506;2023-01-28T02:20:55;95969.56;;;1.78;79.72
9839;BME280;4958;48.150;11.506;2023-01-28T02:23:43;95962.06;;;1.77;79.31
9839;BME280;4958;48.150;11.506;2023-01-28T02:29:18;95960.91;;;1.69;79.48
9839;BME280;4958;48.150;11.506;2023-01-28T02:31:51;95960.22;;;1.67;79.43
9839;BME280;4958;48.150;11.506;2023-01-28T02:34:25;95956.72;;;1.57;79.57
9839;BME280;4958;48.150;11.506;2023-01-28T02:36:58;95958.53;;;1.44;80.61
9839;BME280;4958;48.150;11.506;2023-01-28T02:39:31;95964.00;;;1.51;80.87
9839;BME280;4958;48.150;11.506;2023-01-28T02:42:03;95964.81;;;1.51;80.23
9839;BME280;4958;48.150;11.506;2023-01-28T02:44:33;95966.06;;;1.57;80.70
9839;BME280;4958;48.150;11.506;2023-01-28T02:46:59;95964.81;;;1.62;80.46
9839;BME280;4958;48.150;11.506;2023-01-28T02:49:47;95966.09;;;1.68;80.25
9839;BME280;4958;48.150;11.506;2023-01-28T02:52:21;95964.69;;;1.64;79.48
9839;BME280;4958;48.150;11.506;2023-01-28T02:55:16;95966.25;;;1.43;80.26
9839;BME280;4958;48.150;11.506;2023-01-28T02:57:53;95970.91;;;1.49;80.41
9839;BME280;4958;48.150;11.506;2023-01-28T03:00:27;95972.88;;;1.56;80.35
9839;BME280;4958;48.150;11.506;2023-01-28T03:03:04;95969.88;;;1.62;79.53
9839;BME280;4958;48.150;11.506;2023-01-28T03:05:37;95973.13;;;1.64;79.57
9839;BME280;4958;48.150;11.506;2023-01-28T03:08:06;95976.19;;;1.46;78.53
9839;BME280;4958;48.150;11.506;2023-01-28T03:10:48;95978.13;;;1.42;79.28
9839;BME280;4958;48.150;11.506;2023-01-28T03:13:33;95983.88;;;1.33;79.67
9839;BME280;4958;48.150;11.506;2023-01-28T03:16:18;95981.69;;;1.39;79.88
9839;BME280;4958;48.150;11.506;2023-01-28T03:19:02;95980.94;;;1.50;80.04
9839;BME280;4958;48.150;11.506;2023-01-28T03:21:47;95984.50;;;1.48;80.02
9839;BME280;4958;48.150;11.506;2023-01-28T03:24:34;95983.94;;;1.55;80.29
9839;BME280;4958;48.150;11.506;2023-01-28T03:27:24;95986.16;;;1.60;79.58
9839;BME280;4958;48.150;11.506;2023-01-28T03:30:14;95986.03;;;1.61;79.71
9839;BME280;4958;48.150;11.506;2023-01-28T03:33:03;95992.34;;;1.56;79.97
9839;BME280;4958;48.150;11.506;2023-01-28T03:35:48;95987.28;;;1.56;80.40
9839;BME280;4958;48.150;11.506;2023-01-28T03:38:32;95996.88;;;1.52;80.81
9839;BME280;4958;48.150;11.506;2023-01-28T03:41:07;95999.28;;;1.54;80.57
9839;BME280;4958;48.150;11.506;2023-01-28T03:43:36;95995.69;;;1.56;80.62
9839;BME280;4958;48.150;11.506;2023-01-28T03:46:03;95993.66;;;1.61;80.23
9839;BME280;4958;48.150;11.506;2023-01-28T03:48:32;95996.19;;;1.61;80.08
9839;BME280;4958;48.150;11.506;2023-01-28T03:50:58;95995.16;;;1.64;79.89
9839;BME280;4958;48.150;11.506;2023-01-28T03:53:25;96001.97;;;1.63;80.01
9839;BME280;4958;48.150;11.506;2023-01-28T03:55:52;95998.28;;;1.67;79.89
9839;BME280;4958;48.150;11.506;2023-01-28T03:58:21;95995.16;;;1.64;79.91
9839;BME280;4958;48.150;11.506;2023-01-28T04:00:51;95998.88;;;1.71;79.49
9839;BME280;4958;48.150;11.506;2023-01-28T04:03:19;96002.34;;;1.70;79.44
9839;BME280;4958;48.150;11.506;2023-01-28T04:05:57;95996.78;;;1.65;79.69
9839;BME280;4958;48.150;11.506;2023-01-28T04:08:24;95993.22;;;1.67;79.50
9839;BME280;4958;48.150;11.506;2023-01-28T04:10:51;96004.06;;;1.69;79.71
9839;BME280;4958;48.150;11.506;2023-01-28T04:13:18;95997.47;;;1.67;79.78
9839;BME280;4958;48.150;11.506;2023-01-28T04:15:45;96003.94;;;1.71;79.55
9839;BME280;4958;48.150;11.506;2023-01-28T04:18:12;96009.84;;;1.71;79.02
9839;BME280;4958;48.150;11.506;2023-01-28T04:20:39;96009.47;;;1.76;78.74
9839;BME280;4958;48.150;11.506;2023-01-28T04:23:06;96017.78;;;1.78;78.83
9839;BME280;4958;48.150;11.506;2023-01-28T04:25:33;96019.31;;;1.81;79.03
9839;BME280;4958;48.150;11.506;2023-01-28T04:28:00;96016.28;;;1.76;79.20
9839;BME280;4958;48.150;11.506;2023-01-28T04:30:26;96018.72;;;1.77;79.19
9839;BME280;4958;48.150;11.506;2023-01-28T04:32:53;96016.88;;;1.79;78.97
9839;BME280;4958;48.150;11.506;2023-01-28T04:35:19;96024.97;;;1.73;78.97
9839;BME280;4958;48.150;11.506;2023-01-28T04:37:46;96020.81;;;1.72;79.43
9839;BME280;4958;48.150;11.506;2023-01-28T04:40:14;96024.81;;;1.74;79.40
9839;BME280;4958;48.150;11.506;2023-01-28T04:42:40;96028.16;;;1.75;79.11
9839;BME280;4958;48.150;11.506;2023-01-28T04:45:07;96026.31;;;1.77;78.82
9839;BME280;4958;48.150;11.506;2023-01-28T04:47:34;96026.91;;;1.81;78.51
9839;BME280;4958;48.150;11.506;2023-01-28T04:50:00;96027.72;;;1.81;78.13
9839;BME280;4958;48.150;11.506;2023-01-28T04:52:27;96028.75;;;1.79;78.37
9839;BME280;4958;48.150;11.506;2023-01-28T04:54:53;96027.94;;;1.78;78.31
9839;BME280;4958;48.150;11.506;2023-01-28T04:57:21;96028.75;;;1.79;78.27
9839;BME280;4958;48.150;11.506;2023-01-28T04:59:47;96038.28;;;1.64;78.13
9839;BME280;4958;48.150;11.506;2023-01-28T05:02:14;96037.34;;;1.54;78.49
9839;BME280;4958;48.150;11.506;2023-01-28T05:04:40;96042.00;;;1.36;79.59
9839;BME280;4958;48.150;11.506;2023-01-28T05:07:06;96040.50;;;1.33;79.59
9839;BME280;4958;48.150;11.506;2023-01-28T05:09:33;96049.59;;;1.36;80.27
9839;BME280;4958;48.150;11.506;2023-01-28T05:11:59;96039.84;;;1.43;80.35
9839;BME280;4958;48.150;11.506;2023-01-28T05:14:27;96042.53;;;1.52;79.61
9839;BME280;4958;48.150;11.506;2023-01-28T05:16:53;96043.81;;;1.58;79.41
9839;BME280;4958;48.150;11.506;2023-01-28T05:19:20;96045.09;;;1.63;78.86
9839;BME280;4958;48.150;11.506;2023-01-28T05:21:46;96039.81;;;1.66;78.36
9839;BME280;4958;48.150;11.506;2023-01-28T05:24:13;96040.03;;;1.63;78.29
9839;BME280;4958;48.150;11.506;2023-01-28T05:26:40;96047.03;;;1.49;78.59
9839;BME280;4958;48.150;11.506;2023-01-28T05:29:06;96046.22;;;1.48;78.87
9839;BME280;4958;48.150;11.506;2023-01-28T05:31:34;96050.25;;;1.51;79.24
9839;BME280;4958;48.150;11.506;2023-01-28T05:34:01;96055.78;;;1.56;79.03
9839;BME280;4958;48.150;11.506;2023-01-28T05:36:27;96065.63;;;1.60;78.38
9839;BME280;4958;48.150;11.506;2023-01-28T05:38:53;96066.44;;;1.61;78.28
9839;BME280;4958;48.150;11.506;2023-01-28T05:41:20;96064.59;;;1.63;78.28
9839;BME280;4958;48.150;11.506;2023-01-28T05:43:49;96069.66;;;1.63;78.23
9839;BME280;4958;48.150;11.506;2023-01-28T05:46:15;96073.91;;;1.51;79.01
9839;BME280;4958;48.150;11.506;2023-01-28T05:48:43;96078.41;;;1.59;79.26
9839;BME280;4958;48.150;11.506;2023-01-28T05:51:10;96082.47;;;1.61;79.28
9839;BME280;4958;48.150;11.506;2023-01-28T05:53:36;96076.97;;;1.67;79.44
9839;BME280;4958;48.150;11.506;2023-01-28T05:56:03;96079.50;;;1.67;79.07
9839;BME280;4958;48.150;11.506;2023-01-28T05:58:30;96081.13;;;1.68;79.11
9839;BME280;4958;48.150;11.506;2023-01-28T06:00:56;96085.06;;;1.72;78.89
9839;BME280;4958;48.150;11.506;2023-01-28T06:03:23;96090.00;;;1.74;78.34
9839;BME280;4958;48.150;11.506;2023-01-28T06:05:50;96089.84;;;1.53;78.70
9839;BME280;4958;48.150;11.506;2023-01-28T06:08:17;96090.66;;;1.54;79.15
9839;BME280;4958;48.150;11.506;2023-01-28T06:10:43;96090.19;;;1.60;79.06
9839;BME280;4958;48.150;11.506;2023-01-28T06:13:11;96086.50;;;1.64;78.52
9839;BME280;4958;48.150;11.506;2023-01-28T06:15:37;96095.03;;;1.63;78.77
9839;BME280;4958;48.150;11.506;2023-01-28T06:18:04;96097.31;;;1.55;79.05
9839;BME280;4958;48.150;11.506;2023-01-28T06:20:30;96088.66;;;1.57;86.98
9839;BME280;4958;48.150;11.506;2023-01-28T06:22:58;96092.34;;;2.34;100.00
9839;BME280;4958;48.150;11.506;2023-01-28T06:25:24;96099.56;;;2.85;100.00
9839;BME280;4958;48.150;11.506;2023-01-28T06:27:51;96091.53;;;3.23;96.22
9839;BME280;4958;48.150;11.506;2023-01-28T06:30:17;96093.16;;;3.13;79.04
9839;BME280;4958;48.150;11.506;2023-01-28T06:32:44;96101.50;;;2.70;76.92
9839;BME280;4958;48.150;11.506;2023-01-28T06:35:10;96095.25;;;2.52;77.88
9839;BME280;4958;48.150;11.506;2023-01-28T06:37:37;96103.00;;;2.39;77.45
9839;BME280;4958;48.150;11.506;2023-01-28T06:40:06;96096.88;;;2.31;78.01
9839;BME280;4958;48.150;11.506;2023-01-28T06:42:33;96100.28;;;2.19;77.79
9839;BME280;4958;48.150;11.506;2023-01-28T06:44:59;96108.13;;;2.16;78.15
9839;BME280;4958;48.150;11.506;2023-01-28T06:47:26;96110.78;;;2.14;78.24
9839;BME280;4958;48.150;11.506;2023-01-28T06:49:52;96112.06;;;2.08;78.48
9839;BME280;4958;48.150;11.506;2023-01-28T06:52:18;96115.75;;;2.04;79.00
9839;BME280;4958;48.150;11.506;2023-01-28T06:54:45;96110.66;;;2.04;78.81
9839;BME280;4958;48.150;11.506;2023-01-28T06:57:13;96122.16;;;1.97;78.70
9839;BME280;4958;48.150;11.506;2023-01-28T06:59:39;96118.94;;;1.95;78.98
9839;BME280;4958;48.150;11.506;2023-01-28T07:02:05;96125.28;;;1.66;79.33
9839;BME280;4958;48.150;11.506;2023-01-28T07:04:32;96123.38;;;1.57;80.20
9839;BME280;4958;48.150;11.506;2023-01-28T07:06:58;96120.53;;;1.61;80.32
9839;BME280;4958;48.150;11.506;2023-01-28T07:09:25;96131.66;;;1.71;80.46
9839;BME280;4958;48.150;11.506;2023-01-28T07:11:51;96131.22;;;1.78;80.41
9839;BME280;4958;48.150;11.506;2023-01-28T07:14:19;96127.06;;;1.77;79.46
9839;BME280;4958;48.150;11.506;2023-01-28T07:16:45;96129.28;;;1.81;79.75
9839;BME280;4958;48.150;11.506;2023-01-28T07:19:12;96134.03;;;1.86;79.58
9839;BME280;4958;48.150;11.506;2023-01-28T07:21:38;96141.53;;;1.87;79.88
9839;BME280;4958;48.150;11.506;2023-01-28T07:24:05;96140.63;;;1.88;79.91
9839;BME280;4958;48.150;11.506;2023-01-28T07:26:32;96138.69;;;1.92;80.06
9839;BME280;4958;48.150;11.506;2023-01-28T07:28:58;96143.75;;;1.92;80.13
9839;BME280;4958;48.150;11.506;2023-01-28T07:31:26;96143.63;;;1.93;80.46
9839;BME280;4958;48.150;11.506;2023-01-28T07:33:53;96153.91;;;1.92;80.30
9839;BME280;4958;48.150;11.506;2023-01-28T07:36:19;96157.41;;;1.78;80.77
9839;BME280;4958;48.150;11.506;2023-01-28T07:38:46;96156.00;;;1.74;80.53
9839;BME280;4958;48.150;11.506;2023-01-28T07:41:12;96154.28;;;1.74;80.47
9839;BME280;4958;48.150;11.506;2023-01-28T07:43:38;96155.44;;;1.70;80.90
9839;BME280;4958;48.150;11.506;2023-01-28T07:46:05;96156.81;;;1.74;80.71
9839;BME280;4958;48.150;11.506;2023-01-28T07:48:33;96166.75;;;1.78;80.56
9839;BME280;4958;48.150;11.506;2023-01-28T07:51:00;96168.97;;;1.82;80.75
9839;BME280;4958;48.150;11.506;2023-01-28T07:53:26;96172.09;;;1.86;80.30
9839;BME280;4958;48.150;11.506;2023-01-28T07:55:57;96175.56;;;1.85;80.48
9839;BME280;4958;48.150;11.506;2023-01-28T07:58:24;96172.00;;;1.87;80.31
9839;BME280;4958;48.150;11.506;2023-01-28T08:00:55;96179.44;;;1.78;80.90
9839;BME280;4958;48.150;11.506;2023-01-28T08:03:21;96175.19;;;1.78;80.88
9839;BME280;4958;48.150;11.506;2023-01-28T08:05:51;96179.44;;;1.78;80.88
9839;BME280;4958;48.150;11.506;2023-01-28T08:08:18;96184.91;;;1.84;82.68
9839;BME280;4958;48.150;11.506;2023-01-28T08:10:44;96184.81;;;1.86;80.79
9839;BME280;4958;48.150;11.506;2023-01-28T08:13:12;96181.13;;;1.90;80.28
9839;BME280;4958;48.150;11.506;2023-01-28T08:15:39;96191.72;;;1.84;80.55
9839;BME280;4958;48.150;11.506;2023-01-28T08:18:07;96194.16;;;1.85;80.55
9839;BME280;4958;48.150;11.506;2023-01-28T08:20:34;96194.63;;;1.90;80.80
9839;BME280;4958;48.150;11.506;2023-01-28T08:23:07;96192.31;;;1.87;80.85
9839;BME280;4958;48.150;11.506;2023-01-28T08:25:34;96195.66;;;1.88;82.59
9839;BME280;4958;48.150;11.506;2023-01-28T08:28:01;96200.94;;;1.85;86.94
9839;BME280;4958;48.150;11.506;2023-01-28T08:30:27;96206.63;;;1.88;83.98
9839;BME280;4958;48.150;11.506;2023-01-28T08:32:54;96210.44;;;1.94;82.69
9839;BME280;4958;48.150;11.506;2023-01-28T08:35:22;96203.53;;;1.96;81.26
9839;BME280;4958;48.150;11.506;2023-01-28T08:37:48;96207.53;;;1.63;81.33
9839;BME280;4958;48.150;11.506;2023-01-28T08:40:16;96211.06;;;1.61;82.52
9839;BME280;4958;48.150;11.506;2023-01-28T08:42:45;96209.66;;;1.69;82.75
9839;BME280;4958;48.150;11.506;2023-01-28T08:45:12;96209.00;;;1.79;82.11
9839;BME280;4958;48.150;11.506;2023-01-28T08:47:46;96210.59;;;1.80;81.93
9839;BME280;4958;48.150;11.506;2023-01-28T08:50:13;96213.53;;;1.86;81.19
9839;BME280;4958;48.150;11.506;2023-01-28T08:52:39;96215.75;;;1.91;81.41
9839;BME280;4958;48.150;11.506;2023-01-28T08:55:11;96216.00;;;1.99;80.68
9839;BME280;4958;48.150;11.506;2023-01-28T08:57:39;96220.50;;;1.95;80.04
9839;BME280;4958;48.150;11.506;2023-01-28T09:00:07;96216.81;;;1.99;79.87
9839;BME280;4958;48.150;11.506;2023-01-28T09:02:34;96214.69;;;2.06;79.73
9839;BME280;4958;48.150;11.506;2023-01-28T09:05:01;96221.28;;;2.08;79.25
9839;BME280;4958;48.150;11.506;2023-01-28T09:07:27;96223.91;;;2.07;79.31
9839;BME280;4958;48.150;11.506;2023-01-28T09:09:54;96230.41;;;2.11;79.68
9839;BME280;4958;48.150;11.506;2023-01-28T09:12:20;96229.81;;;2.07;79.77
9839;BME280;4958;48.150;11.506;2023-01-28T09:14:48;96232.25;;;2.09;79.63
9839;BME280;4958;48.150;11.506;2023-01-28T09:17:16;96228.69;;;2.12;79.71
9839;BME280;4958;48.150;11.506;2023-01-28T09:19:42;96223.31;;;2.03;79.30
9839;BME280;4958;48.150;11.506;2023-01-28T09:22:10;96231.31;;;2.10;79.51
9839;BME280;4958;48.150;11.506;2023-01-28T09:24:36;96234.53;;;2.12;78.95
9839;BME280;4958;48.150;11.506;2023-01-28T09:27:03;96232.38;;;2.19;78.53
9839;BME280;4958;48.150;11.506;2023-01-28T09:29:29;96232.75;;;2.25;78.49
9839;BME280;4958;48.150;11.506;2023-01-28T09:31:57;96235.78;;;2.30;78.62
9839;BME280;4958;48.150;11.506;2023-01-28T09:34:23;96236.25;;;2.35;78.16
9839;BME280;4958;48.150;11.506;2023-01-28T09:36:50;96233.59;;;2.37;77.41
9839;BME280;4958;48.150;11.506;2023-01-28T09:39:16;96232.69;;;2.38;76.90
9839;BME280;4958;48.150;11.506;2023-01-28T09:41:51;96229.72;;;2.44;77.17
9839;BME280;4958;48.150;11.506;2023-01-28T09:44:29;96231.81;;;2.50;76.50
9839;BME280;4958;48.150;11.506;2023-01-28T09:47:11;96223.50;;;2.48;77.38
9839;BME280;4958;48.150;11.506;2023-01-28T09:49:43;96224.13;;;2.28;78.13
9839;BME280;4958;48.150;11.506;2023-01-28T09:52:14;96224.47;;;2.34;79.12
9839;BME280;4958;48.150;11.506;2023-01-28T09:54:44;96226.66;;;2.28;79.29
9839;BME280;4958;48.150;11.506;2023-01-28T09:57:19;96225.38;;;2.33;77.09
9839;BME280;4958;48.150;11.506;2023-01-28T09:59:48;96232.38;;;2.42;77.03
9839;BME280;4958;48.150;11.506;2023-01-28T10:02:26;96228.13;;;2.54;76.49
9839;BME280;4958;48.150;11.506;2023-01-28T10:04:59;96225.34;;;2.57;76.41
9839;BME280;4958;48.150;11.506;2023-01-28T10:07:33;96231.63;;;2.64;75.70
9839;BME280;4958;48.150;11.506;2023-01-28T10:10:06;96225.25;;;2.70;75.90
9839;BME280;4958;48.150;11.506;2023-01-28T10:12:54;96219.94;;;2.73;75.36
9839;BME280;4958;48.150;11.506;2023-01-28T10:15:46;96213.81;;;2.64;75.20
9839;BME280;4958;48.150;11.506;2023-01-28T10:18:25;96214.66;;;2.76;75.36
9839;BME280;4958;48.150;11.506;2023-01-28T10:20:58;96210.03;;;2.81;73.46
9839;BME280;4958;48.150;11.506;2023-01-28T10:23:33;96205.44;;;2.86;74.03
9839;BME280;4958;48.150;11.506;2023-01-28T10:26:04;96201.16;;;2.98;73.35
9839;BME280;4958;48.150;11.506;2023-01-28T10:28:36;96205.09;;;3.02;73.11
9839;BME280;4958;48.150;11.506;2023-01-28T10:31:10;96204.97;;;3.03;72.38
9839;BME280;4958;48.150;11.506;2023-01-28T10:33:38;96204.50;;;2.98;72.61
9839;BME280;4958;48.150;11.506;2023-01-28T10:36:06;96204.97;;;3.03;72.17
9839;BME280;4958;48.150;11.506;2023-01-28T10:38:34;96206.00;;;3.12;71.78
9839;BME280;4958;48.150;11.506;2023-01-28T10:41:02;96205.44;;;3.20;71.86
9839;BME280;4958;48.150;11.506;2023-01-28T10:43:31;96202.22;;;3.06;70.80
9839;BME280;4958;48.150;11.506;2023-01-28T10:46:03;96203.34;;;3.13;70.56
9839;BME280;4958;48.150;11.506;2023-01-28T10:48:33;96200.69;;;2.82;69.56
9839;BME280;4958;48.150;11.506;2023-01-28T10:51:04;96197.22;;;2.94;70.78
9839;BME280;4958;48.150;11.506;2023-01-28T10:53:35;96194.81;;;3.03;70.44
9839;BME280;4958;48.150;11.506;2023-01-28T10:56:03;96197.69;;;3.10;70.54
9839;BME280;4958;48.150;11.506;2023-01-28T10:58:33;96204.28;;;3.24;70.23
9839;BME280;4958;48.150;11.506;2023-01-28T11:01:04;96199.78;;;3.16;68.03
9839;BME280;4958;48.150;11.506;2023-01-28T11:03:31;96205.56;;;3.07;68.39
9839;BME280;4958;48.150;11.506;2023-01-28T11:06:00;96200.22;;;3.10;68.75
9839;BME280;4958;48.150;11.506;2023-01-28T11:08:29;96200.81;;;3.13;70.05
9839;BME280;4958;48.150;11.506;2023-01-28T11:10:57;96200.13;;;3.23;70.18
9839;BME280;4958;48.150;11.506;2023-01-28T11:13:25;96196.66;;;3.24;69.56
9839;BME280;4958;48.150;11.506;2023-01-28T11:15:59;96197.22;;;3.27;69.04
9839;BME280;4958;48.150;11.506;2023-01-28T11:18:29;96196.88;;;3.21;67.83
9839;BME280;4958;48.150;11.506;2023-01-28T11:20:58;96194.13;;;3.24;69.14
9839;BME280;4958;48.150;11.506;2023-01-28T11:23:28;96197.91;;;3.40;69.68
9839;BME280;4958;48.150;11.506;2023-01-28T11:26:01;96206.22;;;3.54;69.22
9839;BME280;4958;48.150;11.506;2023-01-28T11:28:29;96200.44;;;3.63;68.84
9839;BME280;4958;48.150;11.506;2023-01-28T11:30:59;96204.91;;;3.70;68.50
9839;BME280;4958;48.150;11.506;2023-01-28T11:33:31;96203.41;;;3.79;68.03
9839;BME280;4958;48.150;11.506;2023-01-28T11:36:05;96205.63;;;3.61;65.54
9839;BME280;4958;48.150;11.506;2023-01-28T11:38:33;96202.97;;;3.52;66.18
9839;BME280;4958;48.150;11.506;2023-01-28T11:41:00;96202.63;;;3.56;66.59
9839;BME280;4958;48.150;11.506;2023-01-28T11:43:28;96206.88;;;3.67;66.33
9839;BME280;4958;48.150;11.506;2023-01-28T11:46:01;96203.69;;;3.65;65.34
9839;BME280;4958;48.150;11.506;2023-01-28T11:48:40;96200.88;;;3.68;66.77
9839;BME280;4958;48.150;11.506;2023-01-28T11:51:19;96203.28;;;3.69;66.73
9839;BME280;4958;48.150;11.506;2023-01-28T11:54:09;96205.41;;;3.53;65.10
9839;BME280;4958;48.150;11.506;2023-01-28T11:56:48;96194.31;;;3.54;68.76
9839;BME280;4958;48.150;11.506;2023-01-28T11:59:31;96186.78;;;3.64;67.91
9839;BME280;4958;48.150;11.506;2023-01-28T12:02:03;96194.75;;;3.48;66.14
9839;BME280;4958;48.150;11.506;2023-01-28T12:04:46;96194.75;;;3.48;67.07
9839;BME280;4958;48.150;11.506;2023-01-28T12:07:29;96199.63;;;3.51;67.19
9839;BME280;4958;48.150;11.506;2023-01-28T12:10:06;96196.66;;;3.24;64.91
9839;BME280;4958;48.150;11.506;2023-01-28T12:12:46;96197.69;;;3.21;66.48
9839;BME280;4958;48.150;11.506;2023-01-28T12:15:37;96194.13;;;3.24;66.65
9839;BME280;4958;48.150;11.506;2023-01-28T12:18:22;96200.44;;;3.29;67.71
9839;BME280;4958;48.150;11.506;2023-01-28T12:20:59;96192.59;;;3.32;69.81
9839;BME280;4958;48.150;11.506;2023-01-28T12:23:39;96201.63;;;3.25;70.75
9839;BME280;4958;48.150;11.506;2023-01-28T12:26:12;96197.09;;;3.29;71.10
9839;BME280;4958;48.150;11.506;2023-01-28T12:28:50;96204.38;;;3.33;78.23
9839;BME280;4958;48.150;11.506;2023-01-28T12:34:36;96200.34;;;3.20;71.83
9839;BME280;4958;48.150;11.506;2023-01-28T12:37:11;96201.97;;;3.09;71.57
9839;BME280;4958;48.150;11.506;2023-01-28T12:39:53;96196.66;;;3.12;71.61
9839;BME280;4958;48.150;11.506;2023-01-28T12:42:36;96190.84;;;3.10;71.90
9839;BME280;4958;48.150;11.506;2023-01-28T12:45:14;96201.84;;;3.11;72.15
9839;BME280;4958;48.150;11.506;2023-01-28T12:47:48;96206.72;;;3.14;71.78
9839;BME280;4958;48.150;11.506;2023-01-28T12:50:20;96201.03;;;3.10;72.10
9839;BME280;4958;48.150;11.506;2023-01-28T12:52:59;96201.97;;;3.09;71.45
9839;BME280;4958;48.150;11.506;2023-01-28T12:55:37;96201.03;;;3.10;71.71
9839;BME280;4958;48.150;11.506;2023-01-28T12:58:14;96206.00;;;3.12;71.64
9839;BME280;4958;48.150;11.506;2023-01-28T13:00:49;96199.53;;;3.08;72.03
9839;BME280;4958;48.150;11.506;2023-01-28T13:03:25;96208.91;;;3.07;71.72
9839;BME280;4958;48.150;11.506;2023-01-28T13:06:05;96205.41;;;3.08;72.10
9839;BME280;4958;48.150;11.506;2023-01-28T13:08:42;96198.97;;;3.04;72.10
9839;BME280;4958;48.150;11.506;2023-01-28T13:11:13;96199.31;;;3.00;72.11
9839;BME280;4958;48.150;11.506;2023-01-28T13:13:44;96210.28;;;3.00;71.60
9839;BME280;4958;48.150;11.506;2023-01-28T13:16:16;96204.28;;;3.01;71.79
9839;BME280;4958;48.150;11.506;2023-01-28T13:18:45;96206.50;;;3.06;71.83
9839;BME280;4958;48.150;11.506;2023-01-28T13:21:15;96211.47;;;3.07;71.94
9839;BME280;4958;48.150;11.506;2023-01-28T13:23:43;96206.13;;;3.10;71.70
9839;BME280;4958;48.150;11.506;2023-01-28T13:26:28;96205.78;;;3.15;70.97
9839;BME280;4958;48.150;11.506;2023-01-28T13:29:33;96216.78;;;3.16;70.66
9839;BME280;4958;48.150;11.506;2023-01-28T13:32:33;96214.91;;;3.18;70.47
9839;BME280;4958;48.150;11.506;2023-01-28T13:35:06;96211.22;;;3.22;69.89
9839;BME280;4958;48.150;11.506;2023-01-28T13:37:42;96213.88;;;3.20;69.10
9839;BME280;4958;48.150;11.506;2023-01-28T13:40:24;96211.91;;;3.12;69.26
9839;BME280;4958;48.150;11.506;2023-01-28T13:43:27;96220.94;;;3.05;68.73
9839;BME280;4958;48.150;11.506;2023-01-28T13:46:11;96226.47;;;3.10;69.22
9839;BME280;4958;48.150;11.506;2023-01-28T13:48:44;96229.50;;;3.16;69.01